Time,TemperatureF,DewpointF,PressureIn,WindDirection,WindDirectionDegrees,WindSpeedMPH,WindSpeedGustMPH,Humidity,HourlyPrecipIn,Conditions,Clouds,dailyrainin,SoftwareType,DateUTC
2013-07-10 00:57:00,81.1,73.4,29.11,SE,135,0.0,0.0,77,0.00,,,0.00,WUHU21623XXSP,2013-07-10 05:57:00,
2013-07-10 01:57:00,80.1,73.1,29.11,WSW,248,0.0,0.0,79,0.00,,,0.00,WUHU21623XXSP,2013-07-10 06:57:00,
2013-07-10 02:57:00,79.5,72.5,29.10,SSW,203,0.0,0.0,79,0.00,,,0.00,WUHU21623XXSP,2013-07-10 07:57:00,
2013-07-10 03:57:00,78.1,71.9,29.10,SSW,203,0.0,0.0,81,0.00,,,0.00,WUHU21623XXSP,2013-07-10 08:57:00,
2013-07-10 04:57:00,77.5,72.0,29.10,North,0,6.3,6.3,83,0.00,,,0.00,WUHU21623XXSP,2013-07-10 09:57:00,
2013-07-10 06:03:00,76.8,70.3,29.11,NNE,23,6.5,6.5,80,0.00,,,0.00,WUHU21623XXSP,2013-07-10 11:03:00,
2013-07-10 06:08:00,76.8,69.8,29.12,NNE,22,1.8,1.8,79,0.00,,,0.00,WUHU21623XXSP,2013-07-10 11:08:00,
2013-07-10 06:13:00,76.6,69.2,29.12,NNE,22,2.5,2.5,78,0.00,,,0.00,WUHU21623XXSP,2013-07-10 11:13:00,
2013-07-10 06:18:00,76.6,69.2,29.12,NNE,22,4.0,6.5,78,0.00,,,0.00,WUHU21623XXSP,2013-07-10 11:18:00,
2013-07-10 06:23:00,76.5,68.7,29.12,NNE,22,2.0,6.5,77,0.00,,,0.00,WUHU21623XXSP,2013-07-10 11:23:00,
2013-07-10 06:28:00,76.5,68.7,29.12,NNE,22,3.4,3.6,77,0.00,,,0.00,WUHU21623XXSP,2013-07-10 11:28:00,
2013-07-10 06:33:00,76.3,68.5,29.12,NNE,22,6.5,6.5,77,0.00,,,0.00,WUHU21623XXSP,2013-07-10 11:33:00,
2013-07-10 06:38:00,76.3,68.5,29.12,NNE,22,1.3,6.5,77,0.00,,,0.00,WUHU21623XXSP,2013-07-10 11:38:00,
2013-07-10 06:43:00,76.3,68.5,29.13,North,0,2.9,4.9,77,0.00,,,0.00,WUHU21623XXSP,2013-07-10 11:43:00,
2013-07-10 06:48:00,76.3,68.1,29.13,NNE,22,7.4,7.4,76,0.00,,,0.00,WUHU21623XXSP,2013-07-10 11:48:00,
2013-07-10 06:53:00,76.3,68.1,29.13,NNE,22,3.1,7.4,76,0.00,,,0.00,WUHU21623XXSP,2013-07-10 11:53:00,
2013-07-10 06:58:00,76.5,68.1,29.13,North,0,8.1,8.1,76,0.00,,,0.00,WUHU21623XXSP,2013-07-10 11:58:00,
2013-07-10 07:03:00,76.6,68.1,29.13,North,0,2.2,8.1,75,0.00,,,0.00,WUHU21623XXSP,2013-07-10 12:03:00,
2013-07-10 07:08:00,76.6,68.1,29.14,NNE,22,4.7,5.1,75,0.00,,,0.00,WUHU21623XXSP,2013-07-10 12:08:00,
2013-07-10 07:13:00,76.8,68.1,29.14,NNE,22,0.9,5.1,75,0.00,,,0.00,WUHU21623XXSP,2013-07-10 12:13:00,
2013-07-10 07:18:00,76.8,68.3,29.15,NNE,22,0.4,4.5,75,0.00,,,0.00,WUHU21623XXSP,2013-07-10 12:18:00,
2013-07-10 07:23:00,77.2,68.2,29.15,NNE,22,1.3,4.5,74,0.00,,,0.00,WUHU21623XXSP,2013-07-10 12:23:00,
2013-07-10 07:28:00,77.2,68.2,29.16,North,0,1.8,1.8,74,0.00,,,0.00,WUHU21623XXSP,2013-07-10 12:28:00,
2013-07-10 07:33:00,77.2,68.2,29.16,North,0,1.8,1.8,74,0.00,,,0.00,WUHU21623XXSP,2013-07-10 12:33:00,
2013-07-10 07:38:00,77.2,68.2,29.16,NNE,22,2.9,12.3,74,0.00,,,0.00,WUHU21623XXSP,2013-07-10 12:38:00,
2013-07-10 07:43:00,77.2,68.2,29.16,NNE,22,2.0,12.3,74,0.00,,,0.00,WUHU21623XXSP,2013-07-10 12:43:00,
2013-07-10 07:48:00,77.2,68.2,29.17,NNE,22,3.1,3.1,74,0.00,,,0.00,WUHU21623XXSP,2013-07-10 12:48:00,
2013-07-10 07:53:00,77.4,68.4,29.17,NNE,22,7.6,7.6,74,0.00,,,0.00,WUHU21623XXSP,2013-07-10 12:53:00,
2013-07-10 07:58:00,77.4,68.4,29.17,NNE,22,5.6,7.6,74,0.00,,,0.00,WUHU21623XXSP,2013-07-10 12:58:00,
2013-07-10 08:03:00,77.2,68.2,29.17,NNE,22,1.3,5.6,74,0.00,,,0.00,WUHU21623XXSP,2013-07-10 13:03:00,
2013-07-10 08:08:00,77.4,68.4,29.18,NNE,22,0.0,5.6,74,0.00,,,0.00,WUHU21623XXSP,2013-07-10 13:08:00,
2013-07-10 08:13:00,77.5,68.6,29.18,NNE,22,0.0,1.3,74,0.00,,,0.00,WUHU21623XXSP,2013-07-10 13:13:00,
2013-07-10 08:18:00,77.5,68.6,29.18,NNE,22,2.0,2.0,74,0.00,,,0.00,WUHU21623XXSP,2013-07-10 13:18:00,
2013-07-10 08:23:00,77.9,68.5,29.18,North,0,3.1,3.1,72,0.00,,,0.00,WUHU21623XXSP,2013-07-10 13:23:00,
2013-07-10 08:28:00,78.1,67.9,29.17,North,0,3.8,4.7,71,0.00,,,0.00,WUHU21623XXSP,2013-07-10 13:28:00,
2013-07-10 08:33:00,78.1,67.5,29.17,North,0,4.0,4.7,70,0.00,,,0.00,WUHU21623XXSP,2013-07-10 13:33:00,
2013-07-10 08:38:00,78.6,68.2,29.17,North,0,4.0,4.0,71,0.00,,,0.00,WUHU21623XXSP,2013-07-10 13:38:00,
2013-07-10 08:43:00,78.6,68.0,29.17,NNE,22,2.9,4.0,70,0.00,,,0.00,WUHU21623XXSP,2013-07-10 13:43:00,
2013-07-10 08:48:00,78.6,67.1,29.17,NE,45,10.3,10.3,68,0.00,,,0.00,WUHU21623XXSP,2013-07-10 13:48:00,
2013-07-10 08:53:00,79.0,67.0,29.17,NNE,22,2.2,10.3,67,0.00,,,0.00,WUHU21623XXSP,2013-07-10 13:53:00,
2013-07-10 08:58:00,79.0,67.0,29.17,NNE,22,4.0,10.3,67,0.00,,,0.00,WUHU21623XXSP,2013-07-10 13:58:00,
2013-07-10 09:03:00,79.2,66.8,29.16,NNE,22,6.0,7.2,66,0.00,,,0.00,WUHU21623XXSP,2013-07-10 14:03:00,
2013-07-10 09:08:00,79.5,67.4,29.16,NNE,22,1.1,7.2,67,0.00,,,0.00,WUHU21623XXSP,2013-07-10 14:08:00,
2013-07-10 09:13:00,79.5,67.1,29.17,NNE,22,1.1,1.1,66,0.00,,,0.00,WUHU21623XXSP,2013-07-10 14:13:00,
2013-07-10 09:18:00,79.7,66.9,29.16,North,0,7.8,7.8,65,0.00,,,0.00,WUHU21623XXSP,2013-07-10 14:18:00,
2013-07-10 09:23:00,79.9,67.0,29.17,North,0,3.4,7.8,65,0.00,,,0.00,WUHU21623XXSP,2013-07-10 14:23:00,
2013-07-10 09:28:00,80.1,66.8,29.17,NNW,337,9.6,9.6,64,0.00,,,0.00,WUHU21623XXSP,2013-07-10 14:28:00,
2013-07-10 09:33:00,80.2,66.9,29.17,NNE,22,5.4,9.6,64,0.00,,,0.00,WUHU21623XXSP,2013-07-10 14:33:00,
2013-07-10 09:38:00,80.4,67.1,29.18,North,0,4.0,6.3,64,0.00,,,0.00,WUHU21623XXSP,2013-07-10 14:38:00,
2013-07-10 09:43:00,80.4,66.2,29.18,NNE,22,2.9,7.6,62,0.00,,,0.00,WUHU21623XXSP,2013-07-10 14:43:00,
2013-07-10 09:48:00,80.6,66.4,29.19,NNE,22,6.3,7.6,62,0.00,,,0.00,WUHU21623XXSP,2013-07-10 14:48:00,
2013-07-10 09:53:00,81.0,67.0,29.19,NNE,22,3.8,6.3,63,0.00,,,0.00,WUHU21623XXSP,2013-07-10 14:53:00,
2013-07-10 09:58:00,81.1,66.4,29.20,NNE,22,3.6,6.7,61,0.00,,,0.00,WUHU21623XXSP,2013-07-10 14:58:00,
2013-07-10 10:07:00,81.3,66.1,29.20,NNW,337,4.7,5.4,60,0.00,,,0.00,WUHU21623XXSP,2013-07-10 15:07:00,
2013-07-10 10:12:00,81.5,66.3,29.20,NNE,22,5.6,5.6,60,0.00,,,0.00,WUHU21623XXSP,2013-07-10 15:12:00,
2013-07-10 10:17:00,82.0,65.7,29.20,NE,45,4.3,5.6,58,0.00,,,0.00,WUHU21623XXSP,2013-07-10 15:17:00,
2013-07-10 10:22:00,82.2,66.4,29.20,North,0,6.3,6.3,59,0.00,,,0.00,WUHU21623XXSP,2013-07-10 15:22:00,
2013-07-10 10:27:00,82.2,66.4,29.20,North,0,1.6,7.2,59,0.00,,,0.00,WUHU21623XXSP,2013-07-10 15:27:00,
2013-07-10 10:32:00,82.6,65.7,29.21,NE,45,7.4,7.6,57,0.00,,,0.00,WUHU21623XXSP,2013-07-10 15:32:00,
2013-07-10 10:37:00,82.8,65.4,29.20,NE,45,4.5,7.6,56,0.00,,,0.00,WUHU21623XXSP,2013-07-10 15:37:00,
2013-07-10 10:42:00,82.8,65.9,29.21,NNE,22,0.2,5.6,57,0.00,,,0.00,WUHU21623XXSP,2013-07-10 15:42:00,
2013-07-10 10:47:00,83.1,65.7,29.21,North,0,7.2,7.2,56,0.00,,,0.00,WUHU21623XXSP,2013-07-10 15:47:00,
2013-07-10 10:52:00,83.3,65.4,29.21,NNE,22,5.6,7.2,55,0.00,,,0.00,WUHU21623XXSP,2013-07-10 15:52:00,
2013-07-10 10:57:00,83.3,65.9,29.21,North,0,2.7,7.2,56,0.00,,,0.00,WUHU21623XXSP,2013-07-10 15:57:00,
2013-07-10 11:02:00,84.0,67.2,29.21,NNE,22,1.6,3.4,57,0.00,,,0.00,WUHU21623XXSP,2013-07-10 16:02:00,
2013-07-10 11:07:00,84.4,67.3,29.21,North,0,3.1,3.1,55,0.00,,,0.00,WUHU21623XXSP,2013-07-10 16:07:00,
2013-07-10 11:12:00,84.6,66.1,29.21,North,0,4.3,7.2,54,0.00,,,0.00,WUHU21623XXSP,2013-07-10 16:12:00,
2013-07-10 11:17:00,84.9,65.9,29.22,NNE,22,6.0,7.2,53,0.00,,,0.00,WUHU21623XXSP,2013-07-10 16:17:00,
2013-07-10 11:22:00,84.9,65.9,29.21,NW,315,2.5,6.0,53,0.00,,,0.00,WUHU21623XXSP,2013-07-10 16:22:00,
2013-07-10 11:27:00,84.9,66.4,29.21,NE,45,0.0,4.7,54,0.00,,,0.00,WUHU21623XXSP,2013-07-10 16:27:00,
2013-07-10 11:32:00,85.5,66.9,29.22,NNW,337,1.6,4.7,54,0.00,,,0.00,WUHU21623XXSP,2013-07-10 16:32:00,
2013-07-10 11:37:00,85.6,67.1,29.22,NE,45,0.0,2.0,54,0.00,,,0.00,WUHU21623XXSP,2013-07-10 16:37:00,
2013-07-10 11:42:00,85.8,66.2,29.22,North,0,3.1,5.8,52,0.00,,,0.00,WUHU21623XXSP,2013-07-10 16:42:00,
2013-07-10 11:47:00,85.8,66.7,29.22,NNW,337,6.0,6.0,53,0.00,,,0.00,WUHU21623XXSP,2013-07-10 16:47:00,
2013-07-10 11:52:00,85.8,66.7,29.22,North,0,1.8,6.0,53,0.00,,,0.00,WUHU21623XXSP,2013-07-10 16:52:00,
2013-07-10 11:57:00,85.8,66.7,29.22,NNE,22,3.1,4.0,53,0.00,,,0.00,WUHU21623XXSP,2013-07-10 16:57:00,
2013-07-10 12:02:00,85.8,66.2,29.22,North,0,4.0,4.0,52,0.00,,,0.00,WUHU21623XXSP,2013-07-10 17:02:00,
2013-07-10 12:07:00,85.6,65.0,29.22,NNE,22,8.7,8.7,50,0.00,,,0.00,WUHU21623XXSP,2013-07-10 17:07:00,
2013-07-10 12:12:00,85.6,66.0,29.21,NE,45,8.3,8.7,52,0.00,,,0.00,WUHU21623XXSP,2013-07-10 17:12:00,
2013-07-10 12:17:00,85.3,65.7,29.21,North,0,4.9,8.3,52,0.00,,,0.00,WUHU21623XXSP,2013-07-10 17:17:00,
2013-07-10 12:22:00,85.6,67.1,29.21,NNE,22,0.0,4.9,54,0.00,,,0.00,WUHU21623XXSP,2013-07-10 17:22:00,
2013-07-10 12:27:00,85.8,66.7,29.21,NNE,22,7.4,7.4,53,0.00,,,0.00,WUHU21623XXSP,2013-07-10 17:27:00,
2013-07-10 12:32:00,85.8,66.7,29.22,NE,45,0.7,7.4,53,0.00,,,0.00,WUHU21623XXSP,2013-07-10 17:32:00,
2013-07-10 12:37:00,85.8,66.7,29.22,NNE,22,2.2,2.2,53,0.00,,,0.00,WUHU21623XXSP,2013-07-10 17:37:00,
2013-07-10 12:42:00,85.8,65.7,29.22,NNW,337,3.4,5.1,51,0.00,,,0.00,WUHU21623XXSP,2013-07-10 17:42:00,
2013-07-10 12:47:00,85.6,66.0,29.23,NE,45,7.6,7.6,52,0.00,,,0.00,WUHU21623XXSP,2013-07-10 17:47:00,
2013-07-10 12:52:00,85.6,66.5,29.22,NNW,337,6.3,7.6,53,0.00,,,0.00,WUHU21623XXSP,2013-07-10 17:52:00,
2013-07-10 12:57:00,85.6,66.0,29.23,North,0,7.8,7.8,52,0.00,,,0.00,WUHU21623XXSP,2013-07-10 17:57:00,
2013-07-10 13:02:00,85.6,65.5,29.23,NNW,337,0.7,7.8,51,0.00,,,0.00,WUHU21623XXSP,2013-07-10 18:02:00,
2013-07-10 13:07:00,85.6,65.5,29.23,North,0,2.0,4.0,51,0.00,,,0.00,WUHU21623XXSP,2013-07-10 18:07:00,
2013-07-10 13:12:00,85.6,66.0,29.22,North,0,0.0,2.0,52,0.00,,,0.00,WUHU21623XXSP,2013-07-10 18:12:00,
2013-07-10 13:17:00,86.0,65.8,29.22,NE,45,2.9,3.1,51,0.00,,,0.00,WUHU21623XXSP,2013-07-10 18:17:00,
2013-07-10 13:22:00,85.8,65.7,29.22,NNE,22,4.9,4.9,51,0.00,,,0.00,WUHU21623XXSP,2013-07-10 18:22:00,
2013-07-10 13:27:00,85.8,65.7,29.22,NNE,22,4.7,4.9,51,0.00,,,0.00,WUHU21623XXSP,2013-07-10 18:27:00,
2013-07-10 13:32:00,85.8,65.7,29.22,North,0,4.3,4.9,51,0.00,,,0.00,WUHU21623XXSP,2013-07-10 18:32:00,
2013-07-10 13:37:00,86.0,65.8,29.22,North,0,6.0,6.0,51,0.00,,,0.00,WUHU21623XXSP,2013-07-10 18:37:00,
2013-07-10 13:42:00,86.2,66.5,29.22,North,0,0.0,6.0,52,0.00,,,0.00,WUHU21623XXSP,2013-07-10 18:42:00,
2013-07-10 13:47:00,86.2,66.0,29.22,North,0,4.7,4.7,52,0.00,,,0.00,WUHU21623XXSP,2013-07-10 18:47:00,
2013-07-10 13:52:00,86.2,66.0,29.22,West,270,2.5,4.7,51,0.00,,,0.00,WUHU21623XXSP,2013-07-10 18:52:00,
2013-07-10 13:57:00,86.2,66.5,29.22,West,270,2.5,4.7,53,0.00,,,0.00,WUHU21623XXSP,2013-07-10 18:57:00,
2013-07-10 14:02:00,86.4,66.7,29.22,NW,315,0.0,2.5,52,0.00,,,0.00,WUHU21623XXSP,2013-07-10 19:02:00,
2013-07-10 14:07:00,86.2,66.5,29.22,NNE,22,2.7,2.7,52,0.00,,,0.00,WUHU21623XXSP,2013-07-10 19:07:00,
2013-07-10 14:12:00,86.2,66.0,29.22,NNE,22,3.1,3.1,51,0.00,,,0.00,WUHU21623XXSP,2013-07-10 19:12:00,
2013-07-10 14:17:00,86.2,66.0,29.22,North,0,3.8,3.8,51,0.00,,,0.00,WUHU21623XXSP,2013-07-10 19:17:00,
2013-07-10 14:22:00,86.2,66.0,29.22,NNE,22,2.2,7.8,51,0.00,,,0.00,WUHU21623XXSP,2013-07-10 19:22:00,
2013-07-10 14:27:00,86.4,65.6,29.21,NNE,22,2.2,7.8,50,0.00,,,0.00,WUHU21623XXSP,2013-07-10 19:27:00,
2013-07-10 14:32:00,86.2,66.5,29.22,NNE,22,1.6,2.2,52,0.00,,,0.00,WUHU21623XXSP,2013-07-10 19:32:00,
2013-07-10 14:37:00,86.2,66.0,29.21,North,0,4.0,4.0,51,0.00,,,0.00,WUHU21623XXSP,2013-07-10 19:37:00,
2013-07-10 14:42:00,85.8,65.1,29.21,NNE,22,4.0,4.0,50,0.00,,,0.00,WUHU21623XXSP,2013-07-10 19:42:00,
2013-07-10 14:47:00,85.8,65.7,29.21,North,0,8.7,8.7,51,0.00,,,0.00,WUHU21623XXSP,2013-07-10 19:47:00,
2013-07-10 14:52:00,85.8,65.7,29.21,NNW,337,6.0,8.7,51,0.00,,,0.00,WUHU21623XXSP,2013-07-10 19:52:00,
2013-07-10 14:57:00,85.8,65.1,29.21,NW,315,5.4,8.7,50,0.00,,,0.00,WUHU21623XXSP,2013-07-10 19:57:00,
2013-07-10 15:02:00,85.6,65.5,29.21,NNE,22,1.1,5.4,51,0.00,,,0.00,WUHU21623XXSP,2013-07-10 20:02:00,
2013-07-10 15:07:00,85.8,65.7,29.21,NNE,22,1.8,5.4,51,0.00,,,0.00,WUHU21623XXSP,2013-07-10 20:07:00,
2013-07-10 15:12:00,85.8,65.7,29.22,NNE,22,5.6,9.8,51,0.00,,,0.00,WUHU21623XXSP,2013-07-10 20:12:00,
2013-07-10 15:17:00,85.8,65.7,29.22,NE,45,7.8,9.8,51,0.00,,,0.00,WUHU21623XXSP,2013-07-10 20:17:00,
2013-07-10 15:22:00,85.6,65.5,29.22,NNE,22,0.0,7.8,51,0.00,,,0.00,WUHU21623XXSP,2013-07-10 20:22:00,
2013-07-10 15:27:00,85.3,65.2,29.22,NNE,22,0.0,5.1,51,0.00,,,0.00,WUHU21623XXSP,2013-07-10 20:27:00,
2013-07-10 15:32:00,85.3,65.2,29.22,NNE,22,0.0,0.0,52,0.00,,,0.00,WUHU21623XXSP,2013-07-10 20:32:00,
2013-07-10 15:37:00,85.6,65.5,29.21,NNE,22,3.6,3.6,51,0.00,,,0.00,WUHU21623XXSP,2013-07-10 20:37:00,
2013-07-10 15:42:00,84.9,64.8,29.21,NNE,22,4.0,4.0,51,0.00,,,0.00,WUHU21623XXSP,2013-07-10 20:42:00,
2013-07-10 15:47:00,84.9,64.3,29.21,NNW,337,4.7,4.7,50,0.00,,,0.00,WUHU21623XXSP,2013-07-10 20:47:00,
2013-07-10 15:52:00,85.1,64.8,29.21,NNW,337,4.7,4.7,51,0.00,,,0.00,WUHU21623XXSP,2013-07-10 20:52:00,
2013-07-10 15:57:00,85.3,65.2,29.21,NNW,337,0.0,4.7,51,0.00,,,0.00,WUHU21623XXSP,2013-07-10 20:57:00,
2013-07-10 16:02:00,85.6,65.0,29.21,NW,315,0.9,6.5,50,0.00,,,0.00,WUHU21623XXSP,2013-07-10 21:02:00,
2013-07-10 16:07:00,85.6,65.0,29.21,NW,315,0.9,6.5,50,0.00,,,0.00,WUHU21623XXSP,2013-07-10 21:07:00,
2013-07-10 16:12:00,85.1,64.5,29.21,North,0,3.6,4.7,50,0.00,,,0.00,WUHU21623XXSP,2013-07-10 21:12:00,
2013-07-10 16:17:00,85.3,64.7,29.20,West,270,0.0,4.7,50,0.00,,,0.00,WUHU21623XXSP,2013-07-10 21:17:00,
2013-07-10 16:22:00,85.3,64.7,29.21,North,0,3.8,3.8,50,0.00,,,0.00,WUHU21623XXSP,2013-07-10 21:22:00,
2013-07-10 16:27:00,85.3,64.7,29.20,NNE,22,0.0,3.8,51,0.00,,,0.00,WUHU21623XXSP,2013-07-10 21:27:00,
2013-07-10 16:32:00,85.6,65.0,29.20,North,0,0.0,2.2,50,0.00,,,0.00,WUHU21623XXSP,2013-07-10 21:32:00,
2013-07-10 16:37:00,85.8,65.1,29.20,NE,45,1.8,2.2,50,0.00,,,0.00,WUHU21623XXSP,2013-07-10 21:37:00,
2013-07-10 16:42:00,85.6,64.3,29.21,North,0,2.2,2.2,49,0.00,,,0.00,WUHU21623XXSP,2013-07-10 21:42:00,
2013-07-10 16:47:00,85.3,64.0,29.20,NNE,22,5.1,5.1,49,0.00,,,0.00,WUHU21623XXSP,2013-07-10 21:47:00,
2013-07-10 16:52:00,84.9,64.3,29.20,NNE,22,2.5,5.1,50,0.00,,,0.00,WUHU21623XXSP,2013-07-10 21:52:00,
2013-07-10 16:57:00,84.7,64.2,29.20,NE,45,8.1,8.1,50,0.00,,,0.00,WUHU21623XXSP,2013-07-10 21:57:00,
2013-07-10 17:02:00,84.7,64.2,29.20,NE,45,2.5,8.1,50,0.00,,,0.00,WUHU21623XXSP,2013-07-10 22:02:00,
2013-07-10 17:07:00,84.7,64.2,29.20,West,270,0.0,6.9,50,0.00,,,0.00,WUHU21623XXSP,2013-07-10 22:07:00,
2013-07-10 17:12:00,84.7,63.5,29.20,North,0,3.1,6.9,49,0.00,,,0.00,WUHU21623XXSP,2013-07-10 22:12:00,
2013-07-10 17:17:00,84.7,64.2,29.20,NNE,22,3.4,3.8,50,0.00,,,0.00,WUHU21623XXSP,2013-07-10 22:17:00,
2013-07-10 17:22:00,84.7,64.2,29.20,NNW,337,2.7,3.4,50,0.00,,,0.00,WUHU21623XXSP,2013-07-10 22:22:00,
2013-07-10 17:27:00,84.7,63.5,29.20,NNE,22,4.3,4.3,49,0.00,,,0.00,WUHU21623XXSP,2013-07-10 22:27:00,
2013-07-10 17:32:00,84.6,62.7,29.20,NNE,22,0.0,4.3,48,0.00,,,0.00,WUHU21623XXSP,2013-07-10 22:32:00,
2013-07-10 17:37:00,84.6,63.4,29.19,NE,45,0.7,4.7,49,0.00,,,0.00,WUHU21623XXSP,2013-07-10 22:37:00,
2013-07-10 17:42:00,84.4,63.2,29.19,NNE,22,4.5,4.7,49,0.00,,,0.00,WUHU21623XXSP,2013-07-10 22:42:00,
2013-07-10 17:47:00,84.6,64.0,29.19,NNE,22,7.4,7.4,50,0.00,,,0.00,WUHU21623XXSP,2013-07-10 22:47:00,
2013-07-10 17:52:00,84.4,63.2,29.19,NNE,22,1.6,7.4,49,0.00,,,0.00,WUHU21623XXSP,2013-07-10 22:52:00,
2013-07-10 17:57:00,84.0,63.5,29.19,NNE,22,3.1,5.4,50,0.00,,,0.00,WUHU21623XXSP,2013-07-10 22:57:00,
2013-07-10 18:02:00,83.8,63.8,29.19,NE,45,4.7,6.9,51,0.00,,,0.00,WUHU21623XXSP,2013-07-10 23:02:00,
2013-07-10 18:07:00,83.7,63.7,29.19,North,0,3.6,6.9,51,0.00,,,0.00,WUHU21623XXSP,2013-07-10 23:07:00,
2013-07-10 18:12:00,83.5,63.0,29.19,North,0,3.4,4.5,50,0.00,,,0.00,WUHU21623XXSP,2013-07-10 23:12:00,
2013-07-10 18:17:00,83.3,62.8,29.19,NNE,22,3.1,4.5,50,0.00,,,0.00,WUHU21623XXSP,2013-07-10 23:17:00,
2013-07-10 18:22:00,83.1,63.1,29.19,NNE,22,6.3,6.3,51,0.00,,,0.00,WUHU21623XXSP,2013-07-10 23:22:00,
2013-07-10 18:27:00,82.9,62.9,29.19,NNE,22,6.9,6.9,51,0.00,,,0.00,WUHU21623XXSP,2013-07-10 23:27:00,
2013-07-10 18:32:00,82.8,62.8,29.19,North,0,2.0,6.9,51,0.00,,,0.00,WUHU21623XXSP,2013-07-10 23:32:00,
2013-07-10 18:37:00,82.6,62.6,29.19,NNE,22,3.6,6.0,51,0.00,,,0.00,WUHU21623XXSP,2013-07-10 23:37:00,
2013-07-10 18:42:00,82.6,63.1,29.20,NE,45,0.0,3.6,52,0.00,,,0.00,WUHU21623XXSP,2013-07-10 23:42:00,
2013-07-10 18:47:00,82.6,62.6,29.20,NNE,22,10.7,10.7,51,0.00,,,0.00,WUHU21623XXSP,2013-07-10 23:47:00,
2013-07-10 18:52:00,82.2,62.2,29.19,North,0,4.9,10.7,51,0.00,,,0.00,WUHU21623XXSP,2013-07-10 23:52:00,
2013-07-10 18:57:00,82.0,62.1,29.20,NNE,22,2.7,5.6,51,0.00,,,0.00,WUHU21623XXSP,2013-07-10 23:57:00,
2013-07-10 19:02:00,82.0,62.1,29.20,NNE,22,2.7,2.7,51,0.00,,,0.00,WUHU21623XXSP,2013-07-11 00:02:00,
2013-07-10 19:07:00,81.7,61.2,29.20,NNE,22,4.0,6.5,50,0.00,,,0.00,WUHU21623XXSP,2013-07-11 00:07:00,
2013-07-10 19:12:00,81.3,60.9,29.20,NNE,22,4.7,10.5,50,0.00,,,0.00,WUHU21623XXSP,2013-07-11 00:12:00,
2013-07-10 19:17:00,81.1,60.7,29.20,North,0,6.9,10.5,50,0.00,,,0.00,WUHU21623XXSP,2013-07-11 00:17:00,
2013-07-10 19:23:00,80.8,60.9,29.20,North,0,0.7,6.9,51,0.00,,,0.00,WUHU21623XXSP,2013-07-11 00:23:00,
2013-07-10 19:28:00,80.4,60.6,29.20,North,0,2.9,3.8,51,0.00,,,0.00,WUHU21623XXSP,2013-07-11 00:28:00,
2013-07-10 19:33:00,80.2,60.5,29.21,North,0,1.6,2.9,51,0.00,,,0.00,WUHU21623XXSP,2013-07-11 00:33:00,
2013-07-10 19:38:00,79.7,60.5,29.20,NNE,22,1.3,2.9,52,0.00,,,0.00,WUHU21623XXSP,2013-07-11 00:38:00,
2013-07-10 19:43:00,79.3,60.2,29.20,North,0,4.3,4.3,52,0.00,,,0.00,WUHU21623XXSP,2013-07-11 00:43:00,
2013-07-10 19:48:00,79.3,60.2,29.21,NNE,22,2.5,4.3,52,0.00,,,0.00,WUHU21623XXSP,2013-07-11 00:48:00,
2013-07-10 19:53:00,79.2,60.5,29.21,NNE,22,4.9,4.9,53,0.00,,,0.00,WUHU21623XXSP,2013-07-11 00:53:00,
2013-07-10 19:58:00,79.0,60.5,29.21,NNE,22,0.0,4.9,53,0.00,,,0.00,WUHU21623XXSP,2013-07-11 00:58:00,
2013-07-10 20:03:00,78.6,60.5,29.21,NNE,22,0.0,3.1,54,0.00,,,0.00,WUHU21623XXSP,2013-07-11 01:03:00,
2013-07-10 20:08:00,78.6,60.5,29.21,NNE,22,2.2,3.1,54,0.00,,,0.00,WUHU21623XXSP,2013-07-11 01:08:00,
2013-07-10 20:13:00,78.6,60.5,29.21,NNE,22,0.4,2.2,54,0.00,,,0.00,WUHU21623XXSP,2013-07-11 01:13:00,
2013-07-10 20:18:00,78.4,60.5,29.22,NNE,22,0.4,0.9,54,0.00,,,0.00,WUHU21623XXSP,2013-07-11 01:18:00,
2013-07-10 20:23:00,78.1,60.6,29.22,NNE,22,0.0,0.4,55,0.00,,,0.00,WUHU21623XXSP,2013-07-11 01:23:00,
2013-07-10 20:28:00,77.9,60.4,29.22,NNE,22,0.0,0.0,55,0.00,,,0.00,WUHU21623XXSP,2013-07-11 01:28:00,
2013-07-10 20:33:00,77.5,60.2,29.22,NNE,22,0.0,0.0,55,0.00,,,0.00,WUHU21623XXSP,2013-07-11 01:33:00,
2013-07-10 20:38:00,77.2,60.5,29.22,NNE,22,0.0,0.0,56,0.00,,,0.00,WUHU21623XXSP,2013-07-11 01:38:00,
2013-07-10 20:43:00,77.2,60.2,29.22,NNE,22,0.0,0.0,56,0.00,,,0.00,WUHU21623XXSP,2013-07-11 01:43:00,
2013-07-10 20:48:00,76.8,59.9,29.22,NNE,22,0.0,0.0,56,0.00,,,0.00,WUHU21623XXSP,2013-07-11 01:48:00,
2013-07-10 20:53:00,76.3,60.1,29.22,NNE,22,0.0,0.0,57,0.00,,,0.00,WUHU21623XXSP,2013-07-11 01:53:00,
2013-07-10 20:58:00,75.9,59.6,29.22,NNE,22,0.0,0.0,57,0.00,,,0.00,WUHU21623XXSP,2013-07-11 01:58:00,
2013-07-10 21:03:00,75.7,59.4,29.22,NNE,22,0.0,0.0,57,0.00,,,0.00,WUHU21623XXSP,2013-07-11 02:03:00,
2013-07-10 21:08:00,75.4,59.6,29.22,NNE,22,0.0,0.0,58,0.00,,,0.00,WUHU21623XXSP,2013-07-11 02:08:00,
2013-07-10 21:13:00,75.2,59.4,29.22,NNE,22,0.0,0.0,58,0.00,,,0.00,WUHU21623XXSP,2013-07-11 02:13:00,
2013-07-10 21:18:00,75.0,59.8,29.22,NNE,22,0.0,0.0,59,0.00,,,0.00,WUHU21623XXSP,2013-07-11 02:18:00,
2013-07-10 21:23:00,74.7,59.4,29.22,NNE,22,0.0,0.0,59,0.00,,,0.00,WUHU21623XXSP,2013-07-11 02:23:00,
2013-07-10 21:28:00,74.5,59.7,29.23,NNE,22,0.0,0.0,60,0.00,,,0.00,WUHU21623XXSP,2013-07-11 02:28:00,
2013-07-10 21:33:00,74.1,59.4,29.23,NNE,22,0.0,0.0,60,0.00,,,0.00,WUHU21623XXSP,2013-07-11 02:33:00,
2013-07-10 21:38:00,73.9,59.6,29.23,NNE,22,0.0,0.0,61,0.00,,,0.00,WUHU21623XXSP,2013-07-11 02:38:00,
2013-07-10 21:43:00,73.8,59.4,29.24,NNE,22,0.0,0.0,61,0.00,,,0.00,WUHU21623XXSP,2013-07-11 02:43:00,
2013-07-10 21:48:00,73.6,59.3,29.23,NNE,22,0.0,0.0,61,0.00,,,0.00,WUHU21623XXSP,2013-07-11 02:48:00,
2013-07-10 21:53:00,73.2,59.4,29.24,NNE,22,0.0,0.0,62,0.00,,,0.00,WUHU21623XXSP,2013-07-11 02:53:00,
2013-07-10 21:58:00,73.0,59.4,29.24,NNE,22,0.0,0.0,62,0.00,,,0.00,WUHU21623XXSP,2013-07-11 02:58:00,
2013-07-10 22:03:00,72.9,59.5,29.24,NNE,22,0.0,0.0,63,0.00,,,0.00,WUHU21623XXSP,2013-07-11 03:03:00,
2013-07-10 22:08:00,72.7,59.3,29.25,NNE,22,0.0,0.0,63,0.00,,,0.00,WUHU21623XXSP,2013-07-11 03:08:00,
2013-07-10 22:13:00,72.5,59.1,29.24,NNE,22,0.0,0.0,63,0.00,,,0.00,WUHU21623XXSP,2013-07-11 03:13:00,
2013-07-10 22:18:00,72.3,59.0,29.25,NNE,22,0.0,0.0,63,0.00,,,0.00,WUHU21623XXSP,2013-07-11 03:18:00,
2013-07-10 22:23:00,72.1,58.8,29.24,NNE,22,0.0,0.0,63,0.00,,,0.00,WUHU21623XXSP,2013-07-11 03:23:00,
2013-07-10 22:28:00,72.1,59.3,29.25,NNE,22,0.0,0.0,64,0.00,,,0.00,WUHU21623XXSP,2013-07-11 03:28:00,
2013-07-10 22:33:00,72.0,59.1,29.24,NNE,22,0.0,0.0,64,0.00,,,0.00,WUHU21623XXSP,2013-07-11 03:33:00,
2013-07-10 22:38:00,71.6,58.7,29.25,NNE,22,0.0,0.0,64,0.00,,,0.00,WUHU21623XXSP,2013-07-11 03:38:00,
2013-07-10 22:57:00,70.7,59.0,29.24,NNE,23,0.0,0.0,66,0.00,,,0.00,WUHU21623XXSP,2013-07-11 03:57:00,
2013-07-10 23:57:00,69.1,58.3,29.26,NNE,23,0.0,0.0,68,0.00,,,0.00,WUHU21623XXSP,2013-07-11 04:57:00,